createdAt,value
2022-08-01T00:04:01.514Z,0.50
2022-08-01T00:09:02.942Z,0.50
2022-08-01T00:14:04.618Z,0.85
2022-08-01T00:19:05.963Z,0.52
2022-08-01T00:24:07.526Z,0.68
2022-08-01T00:30:10.280Z,0.75
2022-08-01T00:34:37.282Z,0.65
2022-08-01T00:39:38.665Z,0.57
2022-08-01T00:44:41.065Z,0.63
2022-08-01T00:49:42.455Z,0.67
2022-08-01T00:54:44.563Z,0.75
2022-08-01T00:59:45.948Z,0.80
2022-08-01T01:04:49.364Z,0.60
2022-08-01T01:10:01.544Z,0.82
2022-08-01T01:15:11.505Z,0.85
2022-08-01T01:20:14.676Z,0.90
2022-08-01T01:25:25.233Z,0.60
2022-08-01T01:30:30.430Z,0.40
2022-08-01T01:35:36.673Z,0.52
2022-08-01T01:40:39.107Z,0.57
2022-08-01T01:45:41.716Z,0.57
2022-08-01T01:50:44.261Z,0.50
2022-08-01T01:55:49.099Z,0.55
2022-08-01T02:00:54.356Z,0.50
2022-08-01T02:05:57.982Z,0.75
2022-08-01T02:11:19.179Z,0.38
2022-08-01T02:16:23.851Z,0.68
2022-08-01T02:21:31.875Z,0.68
2022-08-01T02:26:34.722Z,0.52
2022-08-01T02:31:40.639Z,0.60
2022-08-01T02:36:45.773Z,0.40
2022-08-01T02:41:50.889Z,0.57
2022-08-01T02:47:05.704Z,0.65
2022-08-01T02:52:10.868Z,0.75
2022-08-01T02:57:15.433Z,0.65
2022-08-01T03:02:21.693Z,0.60
2022-08-01T03:07:24.893Z,0.68
2022-08-01T03:12:38.015Z,1.02
2022-08-01T03:17:42.548Z,0.50
2022-08-01T03:22:45.853Z,0.60
2022-08-01T03:27:54.943Z,1.00
2022-08-01T03:32:57.446Z,0.73
2022-08-01T03:38:17.198Z,0.60
2022-08-01T03:43:36.404Z,0.65
2022-08-01T03:48:43.762Z,0.70
2022-08-01T03:53:47.708Z,0.65
2022-08-01T03:58:50.612Z,0.60
2022-08-01T04:03:52.438Z,0.70
2022-08-01T04:08:58.129Z,0.52
2022-08-01T04:13:59.536Z,0.73
2022-08-01T04:19:01.167Z,0.57
2022-08-01T04:24:11.457Z,0.60
2022-08-01T04:29:16.790Z,0.82
2022-08-01T04:34:22.425Z,0.70
2022-08-01T04:39:29.111Z,0.80
2022-08-01T04:44:33.208Z,1.70
2022-08-01T04:49:48.563Z,0.93
2022-08-01T04:54:50.739Z,0.57
2022-08-01T04:59:57.630Z,0.70
2022-08-01T05:05:00.073Z,0.43
2022-08-01T05:10:02.276Z,0.70
2022-08-01T05:15:10.606Z,0.68
2022-08-01T05:20:16.200Z,0.73
2022-08-01T05:25:19.206Z,0.75
2022-08-01T05:30:22.388Z,0.80
2022-08-01T05:35:23.847Z,0.70
2022-08-01T05:40:45.381Z,0.90
2022-08-01T05:45:46.998Z,0.68
2022-08-01T05:50:48.736Z,1.02
2022-08-01T05:55:50.085Z,1.40
2022-08-01T06:00:52.048Z,0.85
2022-08-01T06:05:54.057Z,1.38
2022-08-01T06:10:55.501Z,1.00
2022-08-01T06:15:56.956Z,1.10
2022-08-01T06:20:58.372Z,1.20
2022-08-01T06:25:59.834Z,1.33
2022-08-01T06:31:01.273Z,1.25
2022-08-01T06:36:02.749Z,1.20
2022-08-01T06:41:04.373Z,1.40
2022-08-01T06:46:05.766Z,1.40
2022-08-01T06:51:09.812Z,1.23
2022-08-01T06:56:11.277Z,1.48
2022-08-01T07:01:12.768Z,1.58
2022-08-01T07:06:15.901Z,1.60
2022-08-01T07:16:18.881Z,2.25
2022-08-01T07:21:40.589Z,2.05
2022-08-01T07:26:53.452Z,2.00
2022-08-01T07:31:58.150Z,2.00
2022-08-01T07:36:59.547Z,2.65
2022-08-01T07:42:07.307Z,2.88
2022-08-01T07:47:09.777Z,2.85
2022-08-01T07:52:11.168Z,2.55
2022-08-01T07:57:12.568Z,2.83
2022-08-01T08:02:14.541Z,2.55
2022-08-01T08:07:16.357Z,2.50
2022-08-01T08:12:17.759Z,2.60
2022-08-01T08:17:19.904Z,2.75
2022-08-01T08:22:21.293Z,3.00
2022-08-01T08:27:22.682Z,2.95
2022-08-01T08:32:24.040Z,2.72
2022-08-01T08:37:25.398Z,2.75
2022-08-01T08:42:33.209Z,2.88
2022-08-01T08:47:35.953Z,3.03
2022-08-01T08:52:39.995Z,2.92
2022-08-01T08:57:45.226Z,2.72
2022-08-01T09:02:50.156Z,3.38
2022-08-01T09:07:51.562Z,3.05
2022-08-01T09:13:13.939Z,3.15
2022-08-01T09:18:28.779Z,3.55
2022-08-01T09:23:34.099Z,3.55
2022-08-01T09:28:36.297Z,2.90
2022-08-01T09:33:59.006Z,2.85
2022-08-01T09:39:13.618Z,2.42
2022-08-01T09:44:18.580Z,2.83
2022-08-01T09:49:50.590Z,2.83
2022-08-01T09:54:59.210Z,2.85
2022-08-01T10:00:02.334Z,2.47
2022-08-01T10:05:08.093Z,2.88
2022-08-01T10:10:15.458Z,2.50
2022-08-01T10:15:18.591Z,2.67
2022-08-01T10:20:30.115Z,2.30
2022-08-01T10:25:41.793Z,2.65
2022-08-01T10:30:45.493Z,2.40
2022-08-01T10:35:48.265Z,2.60
2022-08-01T10:40:51.118Z,2.45
2022-08-01T10:45:53.129Z,2.53
2022-08-01T10:50:58.649Z,2.22
2022-08-01T10:56:03.332Z,2.25
2022-08-01T11:01:25.924Z,2.58
2022-08-01T11:06:34.047Z,2.38
2022-08-01T11:12:13.641Z,2.35
2022-08-01T11:17:42.127Z,2.00
2022-08-01T11:22:59.516Z,1.73
2022-08-01T11:28:29.120Z,1.90
2022-08-01T11:33:40.495Z,2.08
2022-08-01T11:38:46.340Z,1.85
2022-08-01T11:44:09.096Z,2.20
2022-08-01T11:49:48.722Z,2.28
2022-08-01T11:55:05.507Z,2.00
2022-08-01T12:00:17.742Z,1.77
2022-08-01T12:05:24.515Z,1.77
2022-08-01T12:10:29.941Z,1.63
2022-08-01T12:15:38.573Z,1.42
2022-08-01T12:20:56.038Z,1.38
2022-08-01T12:25:58.680Z,1.73
2022-08-01T12:36:01.610Z,1.83
2022-08-01T12:41:03.064Z,1.30
2022-08-01T12:51:06.156Z,1.20
2022-08-01T12:56:07.563Z,1.63
2022-08-01T13:01:11.210Z,1.45
2022-08-01T13:06:15.539Z,1.20
2022-08-01T13:11:18.967Z,1.70
2022-08-01T13:16:30.243Z,1.20
2022-08-01T13:21:52.665Z,1.25
2022-08-01T13:27:00.704Z,1.30
2022-08-01T13:32:29.061Z,1.40
2022-08-01T13:37:32.382Z,1.35
2022-08-01T13:42:34.785Z,1.50
2022-08-01T13:47:36.156Z,1.45
2022-08-01T13:52:37.557Z,1.33
2022-08-01T13:57:39.238Z,1.50
2022-08-01T14:02:41.188Z,1.40
2022-08-01T14:07:43.359Z,1.50
2022-08-01T14:12:50.491Z,1.33
2022-08-01T14:17:52.469Z,1.40
2022-08-01T14:22:53.848Z,1.58
2022-08-01T14:27:55.681Z,1.45
2022-08-01T14:32:57.124Z,1.52
2022-08-01T14:37:58.548Z,1.30
2022-08-01T14:43:02.164Z,1.60
2022-08-01T14:48:03.853Z,1.50
2022-08-01T14:53:05.330Z,1.80
2022-08-01T14:58:06.672Z,1.70
2022-08-01T15:03:08.075Z,1.80
2022-08-01T15:08:09.472Z,2.17
2022-08-01T15:13:10.838Z,1.60
2022-08-01T15:18:12.523Z,2.13
2022-08-01T15:23:14.500Z,2.50
2022-08-01T15:28:15.934Z,1.63
2022-08-01T15:33:17.718Z,1.83
2022-08-01T15:38:20.156Z,1.85
2022-08-01T15:43:21.488Z,1.90
2022-08-01T15:48:22.920Z,2.00
2022-08-01T15:53:24.403Z,1.77
2022-08-01T15:58:25.956Z,1.80
2022-08-01T16:03:27.729Z,1.73
2022-08-01T16:08:29.195Z,1.60
2022-08-01T16:13:30.703Z,1.77
2022-08-01T16:18:32.061Z,2.33
2022-08-01T16:23:33.506Z,2.63
2022-08-01T16:28:35.419Z,3.67
2022-08-01T16:33:41.432Z,2.13
2022-08-01T16:38:54.820Z,1.85
2022-08-01T16:43:56.568Z,2.08
2022-08-01T16:48:58.043Z,1.57
2022-08-01T16:54:00.269Z,1.53
2022-08-01T16:59:01.650Z,1.50
2022-08-01T17:04:03.071Z,1.85
2022-08-01T17:09:05.211Z,1.40
2022-08-01T17:14:06.649Z,1.92
2022-08-01T17:19:08.284Z,1.90
2022-08-01T17:24:09.820Z,2.40
2022-08-01T17:29:11.557Z,2.08
2022-08-01T17:34:13.133Z,1.90
2022-08-01T17:39:14.645Z,2.00
2022-08-01T17:44:15.967Z,2.55
2022-08-01T17:49:33.344Z,2.40
2022-08-01T17:54:39.074Z,2.50
2022-08-01T17:59:40.450Z,2.55
2022-08-01T18:04:44.408Z,2.17
2022-08-01T18:09:46.353Z,2.30
2022-08-01T18:14:47.715Z,2.27
2022-08-01T18:19:50.759Z,2.20
2022-08-01T18:24:52.469Z,2.42
2022-08-01T18:29:53.827Z,2.10
2022-08-01T18:34:55.174Z,3.35
2022-08-01T18:39:57.039Z,3.40
2022-08-01T18:44:58.417Z,2.72
2022-08-01T18:50:00.095Z,2.50
2022-08-01T18:55:01.487Z,2.65
2022-08-01T19:00:04.516Z,2.30
2022-08-01T19:05:06.305Z,2.17
2022-08-01T19:10:07.901Z,2.08
2022-08-01T19:15:09.892Z,2.53
2022-08-01T19:20:11.506Z,2.60
2022-08-01T19:25:14.893Z,2.60
2022-08-01T19:30:18.078Z,2.10
2022-08-01T19:35:19.740Z,2.00
2022-08-01T19:40:26.164Z,2.05
2022-08-01T19:45:29.699Z,2.20
2022-08-01T19:50:32.609Z,2.10
2022-08-01T20:00:42.745Z,2.30
2022-08-01T20:05:44.313Z,2.05
2022-08-01T20:10:46.716Z,1.65
2022-08-01T20:15:48.574Z,1.95
2022-08-01T20:20:52.307Z,1.73
2022-08-01T20:25:59.070Z,1.88
2022-08-01T20:31:05.701Z,1.60
2022-08-01T20:36:12.377Z,2.08
2022-08-01T20:41:28.204Z,1.65
2022-08-01T20:51:38.102Z,1.13
2022-08-01T20:56:59.256Z,1.00
2022-08-01T21:02:24.947Z,1.63
2022-08-01T21:07:30.529Z,0.85
2022-08-01T21:12:44.754Z,1.00
2022-08-01T21:17:54.983Z,1.08
2022-08-01T21:23:14.434Z,1.00
2022-08-01T21:28:15.972Z,0.85
2022-08-01T21:33:17.429Z,1.00
2022-08-01T21:38:19.177Z,0.98
2022-08-01T21:43:21.828Z,0.98
2022-08-01T21:48:26.868Z,1.08
2022-08-01T21:53:53.889Z,0.80
2022-08-01T21:59:33.519Z,1.00
2022-08-01T22:04:53.515Z,1.00
2022-08-01T22:09:57.353Z,0.90
2022-08-01T22:15:03.074Z,0.80
2022-08-01T22:20:05.365Z,1.05
2022-08-01T22:25:07.253Z,1.00
2022-08-01T22:30:12.660Z,0.80
2022-08-01T22:35:16.352Z,0.98
2022-08-01T22:40:17.688Z,1.10
2022-08-01T22:45:39.819Z,0.95
2022-08-01T22:50:55.168Z,0.90
2022-08-01T22:55:59.377Z,0.80
2022-08-01T23:01:03.017Z,0.85
2022-08-01T23:06:09.978Z,1.02
2022-08-01T23:11:11.395Z,0.88
2022-08-01T23:16:17.429Z,0.70
2022-08-01T23:21:19.652Z,0.90
2022-08-01T23:26:23.424Z,0.95
2022-08-01T23:32:00.631Z,0.80
2022-08-01T23:36:48.285Z,0.98
2022-08-01T23:41:57.258Z,0.90
2022-08-01T23:47:00.959Z,1.20
2022-08-01T23:52:03.053Z,0.88
2022-08-01T23:57:04.632Z,0.80
